< < Back
Terminal Aerodrome Forecast


Current Version              Previous Versions:   1  2  3  4  5  6  7  8  9  

Terminal Aerodrome Forecast

131
FTUS44 KBMX 312300 RRA
TAFBHM
TAF
KBHM 312341Z 0100/0124 VRB04KT P6SM SCT050 BKN150
     FM011500 20007KT P6SM SCT025 BKN060
     FM011800 22008KT P6SM SCT050 BKN200=

Latest METAR

011
SAUS70 KWBC 010700 RRJ
MTRBHM
METAR KBHM 010653Z 15003KT 10SM BKN150 25/22 A3010 RMK AO2 SLP182
T02500217 $


USA.gov is the U.S. government's official web portal to all federal, state and local government web resources and services.